createdAt,value
2023-12-03T00:00:20.021Z,96254.16
2023-12-03T00:02:47.763Z,96275.34
2023-12-03T00:05:15.925Z,96272.50
2023-12-03T00:07:44.105Z,96274.69
2023-12-03T00:10:12.446Z,96273.59
2023-12-03T00:12:40.531Z,96285.81
2023-12-03T00:15:08.843Z,96279.78
2023-12-03T00:17:36.138Z,96279.31
2023-12-03T00:20:05.025Z,96275.38
2023-12-03T00:22:32.495Z,96276.06
2023-12-03T00:24:59.982Z,96280.50
2023-12-03T00:27:27.322Z,96286.09
2023-12-03T00:29:55.124Z,96280.31
2023-12-03T00:32:23.120Z,96282.63
2023-12-03T00:34:50.197Z,96297.06
2023-12-03T00:37:20.286Z,96299.00
2023-12-03T00:39:47.662Z,96296.97
2023-12-03T00:42:14.971Z,96304.00
2023-12-03T00:44:43.084Z,96300.56
2023-12-03T00:47:10.676Z,96311.34
2023-12-03T00:49:38.623Z,96320.19
2023-12-03T00:52:11.189Z,96319.16
2023-12-03T00:54:41.195Z,96315.47
2023-12-03T00:57:10.989Z,96312.13
2023-12-03T00:59:38.312Z,96318.53
2023-12-03T01:02:11.625Z,96313.69
2023-12-03T01:04:39.057Z,96317.06
2023-12-03T01:07:06.186Z,96317.16
2023-12-03T01:09:36.450Z,96317.78
2023-12-03T01:12:04.052Z,96323.94
2023-12-03T01:14:31.052Z,96315.84
2023-12-03T01:16:58.166Z,96322.59
2023-12-03T01:19:25.929Z,96325.00
2023-12-03T01:21:53.387Z,96327.41
2023-12-03T01:24:20.978Z,96327.69
2023-12-03T01:26:48.174Z,96319.47
2023-12-03T01:29:15.415Z,96316.47
2023-12-03T01:31:42.569Z,96325.31
2023-12-03T01:34:09.854Z,96330.94
2023-12-03T01:36:36.981Z,96339.69
2023-12-03T01:39:04.096Z,96331.47
2023-12-03T01:41:33.135Z,96337.00
2023-12-03T01:44:01.024Z,96351.84
2023-12-03T01:46:29.074Z,96344.22
2023-12-03T01:48:58.180Z,96346.44
2023-12-03T01:51:26.296Z,96348.69
2023-12-03T01:53:57.981Z,96354.88
2023-12-03T01:56:25.432Z,96360.13
2023-12-03T01:58:53.573Z,96358.13
2023-12-03T02:01:20.796Z,96355.63
2023-12-03T02:03:48.222Z,96354.69
2023-12-03T02:06:15.537Z,96354.44
2023-12-03T02:08:42.595Z,96349.56
2023-12-03T02:11:10.197Z,96351.38
2023-12-03T02:13:41.138Z,96359.78
2023-12-03T02:16:08.801Z,96354.00
2023-12-03T02:18:39.555Z,96359.53
2023-12-03T02:21:07.657Z,96371.38
2023-12-03T02:23:35.053Z,96375.78
2023-12-03T02:26:02.352Z,96358.03
2023-12-03T02:28:29.556Z,96361.84
2023-12-03T02:30:58.722Z,96352.06
2023-12-03T02:33:25.969Z,96357.59
2023-12-03T02:35:53.243Z,96364.81
2023-12-03T02:38:20.363Z,96357.59
2023-12-03T02:40:47.252Z,96369.88
2023-12-03T02:43:14.336Z,96362.03
2023-12-03T02:45:41.815Z,96365.03
2023-12-03T02:48:09.084Z,96367.81
2023-12-03T02:50:36.272Z,96379.13
2023-12-03T02:53:03.482Z,96373.78
2023-12-03T02:55:30.919Z,96367.56
2023-12-03T02:57:58.296Z,96372.50
2023-12-03T03:00:25.473Z,96369.19
2023-12-03T03:02:53.348Z,96372.50
2023-12-03T03:05:20.260Z,96386.00
2023-12-03T03:07:47.268Z,96388.78
2023-12-03T03:10:14.203Z,96370.34
2023-12-03T03:12:41.434Z,96369.19
2023-12-03T03:15:09.362Z,96365.34
2023-12-03T03:17:36.793Z,96389.34
2023-12-03T03:20:07.513Z,96389.34
2023-12-03T03:22:34.751Z,96393.25
2023-12-03T03:25:02.044Z,96394.88
2023-12-03T03:27:29.417Z,96391.03
2023-12-03T03:29:56.871Z,96381.13
2023-12-03T03:32:26.966Z,96395.56
2023-12-03T03:34:54.034Z,96384.13
2023-12-03T03:37:21.180Z,96387.88
2023-12-03T03:39:48.445Z,96394.88
2023-12-03T03:42:15.606Z,96392.38
2023-12-03T03:44:42.836Z,96396.81
2023-12-03T03:47:13.771Z,96392.56
2023-12-03T03:49:41.475Z,96399.59
2023-12-03T03:52:08.503Z,96406.34
2023-12-03T03:54:40.121Z,96411.50
2023-12-03T03:57:07.512Z,96414.50
2023-12-03T03:59:34.898Z,96414.28
2023-12-03T04:02:02.286Z,96436.34
2023-12-03T04:04:29.388Z,96441.59
2023-12-03T04:06:56.437Z,96460.91
2023-12-03T04:09:23.687Z,96478.56
2023-12-03T04:11:51.266Z,96490.16
2023-12-03T04:14:19.632Z,96500.38
2023-12-03T04:16:47.140Z,96502.03
2023-12-03T04:19:14.678Z,96513.06
2023-12-03T04:21:42.138Z,96511.72
2023-12-03T04:24:09.430Z,96529.06
2023-12-03T04:26:36.901Z,96538.47
2023-12-03T04:29:05.477Z,96550.31
2023-12-03T04:31:38.024Z,96554.41
2023-12-03T04:34:05.570Z,96559.13
2023-12-03T04:36:32.781Z,96564.94
2023-12-03T04:39:02.763Z,96577.19
2023-12-03T04:41:40.025Z,96583.94
2023-12-03T04:44:08.103Z,96583.81
2023-12-03T04:46:36.471Z,96583.69
2023-12-03T04:49:07.162Z,96591.97
2023-12-03T04:51:34.691Z,96609.34
2023-12-03T04:54:02.310Z,96598.59
2023-12-03T04:56:37.723Z,96597.22
2023-12-03T04:59:06.317Z,96609.78
2023-12-03T05:01:36.694Z,96627.00
2023-12-03T05:04:04.099Z,96635.25
2023-12-03T05:06:31.546Z,96645.16
2023-12-03T05:08:59.150Z,96653.47
2023-12-03T05:11:25.939Z,96662.81
2023-12-03T05:13:52.847Z,96663.34
2023-12-03T05:16:19.898Z,96653.94
2023-12-03T05:18:46.981Z,96667.47
2023-12-03T05:21:17.078Z,96668.03
2023-12-03T05:23:44.159Z,96670.63
2023-12-03T05:26:11.767Z,96676.81
2023-12-03T05:28:39.504Z,96683.84
2023-12-03T05:31:07.190Z,96689.75
2023-12-03T05:33:37.226Z,96679.78
2023-12-03T05:36:05.248Z,96695.94
2023-12-03T05:38:32.102Z,96699.38
2023-12-03T05:40:59.289Z,96716.19
2023-12-03T05:43:26.383Z,96719.75
2023-12-03T05:45:56.599Z,96738.09
2023-12-03T05:48:23.849Z,96743.97
2023-12-03T05:50:50.861Z,96760.50
2023-12-03T05:53:18.146Z,96753.09
2023-12-03T05:55:45.208Z,96753.38
2023-12-03T05:58:12.044Z,96761.91
2023-12-03T06:00:41.520Z,96771.06
2023-12-03T06:03:08.508Z,96771.22
2023-12-03T06:05:38.615Z,96762.25
2023-12-03T06:08:06.188Z,96782.16
2023-12-03T06:10:33.112Z,96785.84
2023-12-03T06:13:00.566Z,96783.34
2023-12-03T06:15:27.770Z,96784.56
2023-12-03T06:17:57.917Z,96778.41
2023-12-03T06:20:25.116Z,96776.03
2023-12-03T06:22:51.868Z,96776.41
2023-12-03T06:25:19.369Z,96805.72
2023-12-03T06:27:46.365Z,96800.00
2023-12-03T06:30:14.021Z,96799.78
2023-12-03T06:32:41.034Z,96800.91
2023-12-03T06:35:12.669Z,96814.78
2023-12-03T06:37:40.987Z,96827.50
2023-12-03T06:40:12.103Z,96832.34
2023-12-03T06:42:39.127Z,96846.03
2023-12-03T06:45:06.747Z,96847.31
2023-12-03T06:47:33.559Z,96856.16
2023-12-03T06:50:00.479Z,96854.97
2023-12-03T06:52:27.414Z,96858.75
2023-12-03T06:54:54.489Z,96863.59
2023-12-03T06:57:21.762Z,96864.44
2023-12-03T06:59:48.794Z,96869.00
2023-12-03T07:02:16.006Z,96874.13
2023-12-03T07:04:42.834Z,96879.53
2023-12-03T07:07:11.525Z,96892.78
2023-12-03T07:09:40.339Z,96899.56
2023-12-03T07:12:08.956Z,96898.72
2023-12-03T07:14:38.703Z,96896.53
2023-12-03T07:17:06.002Z,96886.81
2023-12-03T07:19:32.943Z,96903.00
2023-12-03T07:22:00.102Z,96914.75
2023-12-03T07:24:26.993Z,96905.72
2023-12-03T07:26:53.845Z,96906.16
2023-12-03T07:29:21.144Z,96909.59
2023-12-03T07:31:47.966Z,96901.38
2023-12-03T07:34:14.915Z,96887.13
2023-12-03T07:36:41.901Z,96908.28
2023-12-03T07:39:09.554Z,96909.41
2023-12-03T07:41:36.530Z,96904.34
2023-12-03T07:44:04.048Z,96897.56
2023-12-03T07:46:34.330Z,96912.22
2023-12-03T07:49:01.555Z,96908.44
2023-12-03T07:51:30.729Z,96908.75
2023-12-03T07:54:00.857Z,96905.66
2023-12-03T07:56:41.526Z,96905.88
2023-12-03T07:59:09.155Z,96914.16
2023-12-03T08:01:37.508Z,96925.38
2023-12-03T08:04:05.617Z,96918.25
2023-12-03T08:06:33.227Z,96919.91
2023-12-03T08:09:01.226Z,96923.44
2023-12-03T08:11:28.489Z,96929.53
2023-12-03T08:13:56.340Z,96934.72
2023-12-03T08:16:23.433Z,96928.47
2023-12-03T08:18:50.494Z,96931.78
2023-12-03T08:21:18.221Z,96933.16
2023-12-03T08:23:45.120Z,96943.09
2023-12-03T08:26:15.401Z,96931.28
2023-12-03T08:28:43.288Z,96933.22
2023-12-03T08:31:14.175Z,96936.25
2023-12-03T08:33:54.937Z,96950.78
2023-12-03T08:36:22.001Z,96950.22
2023-12-03T08:38:52.110Z,96944.03
2023-12-03T08:41:20.640Z,96945.75
2023-12-03T08:43:47.649Z,96956.81
2023-12-03T08:46:15.245Z,96955.75
2023-12-03T08:48:42.932Z,96970.56
2023-12-03T08:51:10.484Z,96961.59
2023-12-03T08:53:40.225Z,96955.00
2023-12-03T08:56:12.371Z,96957.78
2023-12-03T08:58:43.075Z,96966.09
2023-12-03T09:01:10.446Z,96955.00
2023-12-03T09:03:41.608Z,96962.97
2023-12-03T09:06:09.397Z,96969.88
2023-12-03T09:08:42.218Z,96970.28
2023-12-03T09:11:10.494Z,96969.22
2023-12-03T09:13:37.786Z,96973.50
2023-12-03T09:16:08.031Z,96981.03
2023-12-03T09:18:39.946Z,96982.69
2023-12-03T09:21:09.765Z,96985.59
2023-12-03T09:23:40.364Z,96978.31
2023-12-03T09:26:07.836Z,96979.25
2023-12-03T09:28:35.826Z,96974.16
2023-12-03T09:31:02.726Z,96978.19
2023-12-03T09:33:32.376Z,96979.47
2023-12-03T09:35:59.640Z,96969.75
2023-12-03T09:38:26.742Z,96978.78
2023-12-03T09:40:56.766Z,96980.63
2023-12-03T09:43:27.838Z,96991.72
2023-12-03T09:45:58.382Z,96993.91
2023-12-03T09:48:38.153Z,96998.34
2023-12-03T09:51:05.722Z,97002.34
2023-12-03T09:53:35.091Z,97002.50
2023-12-03T09:56:02.678Z,97005.31
2023-12-03T09:58:30.000Z,97010.34
2023-12-03T10:00:57.819Z,97014.78
2023-12-03T10:03:28.074Z,97013.41
2023-12-03T10:06:04.676Z,97010.38
2023-12-03T10:08:35.123Z,97020.88
2023-12-03T10:11:07.145Z,97024.19
2023-12-03T10:13:36.012Z,97034.16
2023-12-03T10:16:03.467Z,97044.84
2023-12-03T10:18:30.471Z,97036.94
2023-12-03T10:21:10.444Z,97034.16
2023-12-03T10:23:41.977Z,97033.63
2023-12-03T10:26:13.157Z,97028.06
2023-12-03T10:28:41.462Z,97025.06
2023-12-03T10:31:18.524Z,97020.91
2023-12-03T10:33:48.863Z,97019.53
2023-12-03T10:36:16.605Z,97024.50
2023-12-03T10:38:44.858Z,97031.16
2023-12-03T10:41:16.718Z,97032.81
2023-12-03T10:43:44.535Z,97039.63
2023-12-03T10:46:13.290Z,97043.06
2023-12-03T10:48:41.210Z,97037.81
2023-12-03T10:51:10.600Z,97041.00
2023-12-03T10:53:38.800Z,97049.41
2023-12-03T10:56:07.876Z,97057.63
2023-12-03T10:58:38.357Z,97054.13
2023-12-03T11:01:23.728Z,97069.91
2023-12-03T11:03:58.822Z,97082.38
2023-12-03T11:06:26.989Z,97080.13
2023-12-03T11:09:00.156Z,97069.63
2023-12-03T11:11:27.816Z,97072.53
2023-12-03T11:13:58.937Z,97076.56
2023-12-03T11:16:34.299Z,97072.97
2023-12-03T11:19:10.882Z,97077.38
2023-12-03T11:22:06.758Z,97073.09
2023-12-03T11:24:47.219Z,97076.66
2023-12-03T11:27:14.447Z,97086.75
2023-12-03T11:29:54.050Z,97089.00
2023-12-03T11:32:27.795Z,97091.75
2023-12-03T11:35:14.565Z,97101.69
2023-12-03T11:37:45.364Z,97124.78
2023-12-03T11:40:26.646Z,97128.53
2023-12-03T11:42:53.525Z,97129.22
2023-12-03T11:45:28.599Z,97129.47
2023-12-03T11:48:12.671Z,97135.41
2023-12-03T11:50:41.491Z,97130.16
2023-12-03T11:53:10.396Z,97133.63
2023-12-03T11:55:40.946Z,97138.56
2023-12-03T11:58:08.805Z,97130.94
2023-12-03T12:00:37.356Z,97134.81
2023-12-03T12:03:08.281Z,97133.16
2023-12-03T12:05:44.694Z,97133.25
2023-12-03T12:08:22.671Z,97138.16
2023-12-03T12:10:53.669Z,97134.00
2023-12-03T12:13:26.174Z,97139.25
2023-12-03T12:15:55.476Z,97138.72
2023-12-03T12:18:25.110Z,97148.97
2023-12-03T12:20:52.358Z,97148.44
2023-12-03T12:23:19.359Z,97151.91
2023-12-03T12:25:50.858Z,97146.91
2023-12-03T12:28:18.184Z,97155.31
2023-12-03T12:30:46.401Z,97161.69
2023-12-03T12:33:13.542Z,97174.72
2023-12-03T12:35:40.421Z,97167.13
2023-12-03T12:38:14.591Z,97172.19
2023-12-03T12:40:53.557Z,97186.81
2023-12-03T12:43:23.369Z,97181.81
2023-12-03T12:45:51.523Z,97199.22
2023-12-03T12:48:31.948Z,97195.06
2023-12-03T12:50:59.482Z,97204.63
2023-12-03T12:53:27.694Z,97203.00
2023-12-03T12:55:54.834Z,97207.09
2023-12-03T12:58:22.082Z,97211.91
2023-12-03T13:00:49.346Z,97201.03
2023-12-03T13:03:16.423Z,97214.66
2023-12-03T13:05:46.104Z,97225.16
2023-12-03T13:08:15.405Z,97216.84
2023-12-03T13:10:42.394Z,97221.19
2023-12-03T13:13:13.387Z,97233.13
2023-12-03T13:15:42.196Z,97227.16
2023-12-03T13:18:16.542Z,97241.00
2023-12-03T13:20:49.487Z,97238.75
2023-12-03T13:23:19.469Z,97239.84
2023-12-03T13:25:46.351Z,97248.16
2023-12-03T13:28:16.430Z,97227.31
2023-12-03T13:30:43.501Z,97248.88
2023-12-03T13:33:10.718Z,97264.66
2023-12-03T13:35:38.098Z,97282.81
2023-12-03T13:38:05.034Z,97283.75
2023-12-03T13:40:33.258Z,97285.44
2023-12-03T13:43:09.716Z,97278.66
2023-12-03T13:45:43.676Z,97273.53
2023-12-03T13:48:11.454Z,97286.19
2023-12-03T13:50:39.374Z,97294.41
2023-12-03T13:53:19.060Z,97306.69
2023-12-03T13:55:53.051Z,97310.84
2023-12-03T13:58:25.713Z,97295.34
2023-12-03T14:01:05.489Z,97288.59
2023-12-03T14:03:33.377Z,97305.72
2023-12-03T14:06:00.850Z,97307.75
2023-12-03T14:08:28.508Z,97319.78
2023-12-03T14:11:01.524Z,97318.59
2023-12-03T14:13:38.110Z,97325.72
2023-12-03T14:16:06.434Z,97328.81
2023-12-03T14:18:37.092Z,97333.13
2023-12-03T14:21:04.860Z,97317.41
2023-12-03T14:23:34.976Z,97324.28
2023-12-03T14:26:03.702Z,97336.06
2023-12-03T14:28:34.263Z,97346.44
2023-12-03T14:31:05.408Z,97347.50
2023-12-03T14:33:35.736Z,97338.69
2023-12-03T14:36:04.788Z,97348.34
2023-12-03T14:38:31.753Z,97345.00
2023-12-03T14:40:58.756Z,97350.25
2023-12-03T14:43:26.493Z,97352.38
2023-12-03T14:45:56.169Z,97358.09
2023-12-03T14:48:23.337Z,97358.31
2023-12-03T14:50:50.567Z,97359.72
2023-12-03T14:53:17.456Z,97359.22
2023-12-03T14:55:44.599Z,97350.88
2023-12-03T14:58:11.651Z,97357.41
2023-12-03T15:00:40.451Z,97371.34
2023-12-03T15:03:09.940Z,97378.25
2023-12-03T15:05:37.330Z,97380.13
2023-12-03T15:08:04.559Z,97385.09
2023-12-03T15:10:32.275Z,97383.66
2023-12-03T15:12:59.896Z,97388.91
2023-12-03T15:15:27.424Z,97386.75
2023-12-03T15:17:54.709Z,97392.25
2023-12-03T15:20:24.645Z,97390.28
2023-12-03T15:22:54.185Z,97402.59
2023-12-03T15:25:26.966Z,97409.53
2023-12-03T15:27:54.846Z,97410.44
2023-12-03T15:30:23.613Z,97411.81
2023-12-03T15:32:53.408Z,97412.06
2023-12-03T15:35:23.374Z,97417.59
2023-12-03T15:37:55.621Z,97413.13
2023-12-03T15:40:23.367Z,97421.78
2023-12-03T15:42:55.576Z,97432.91
2023-12-03T15:45:25.836Z,97418.06
2023-12-03T15:47:53.583Z,97424.94
2023-12-03T15:50:22.884Z,97435.63
2023-12-03T15:52:50.451Z,97439.59
2023-12-03T15:55:22.782Z,97446.09
2023-12-03T15:57:50.710Z,97442.53
2023-12-03T16:00:24.371Z,97451.31
2023-12-03T16:02:58.889Z,97459.03
2023-12-03T16:05:25.992Z,97461.19
2023-12-03T16:07:54.689Z,97435.59
2023-12-03T16:10:22.759Z,97462.34
2023-12-03T16:12:52.728Z,97457.94
2023-12-03T16:15:23.353Z,97446.44
2023-12-03T16:17:52.463Z,97459.38
2023-12-03T16:20:19.594Z,97469.47
2023-12-03T16:22:51.940Z,97477.88
2023-12-03T16:25:20.232Z,97474.56
2023-12-03T16:27:49.770Z,97484.81
2023-12-03T16:30:17.945Z,97481.16
2023-12-03T16:32:45.445Z,97477.59
2023-12-03T16:35:13.232Z,97469.34
2023-12-03T16:37:40.632Z,97479.75
2023-12-03T16:40:15.628Z,97471.09
2023-12-03T16:42:42.706Z,97474.22
2023-12-03T16:45:09.604Z,97483.81
2023-12-03T16:47:36.626Z,97488.44
2023-12-03T16:50:04.467Z,97490.00
2023-12-03T16:52:31.976Z,97485.50
2023-12-03T16:54:59.413Z,97488.28
2023-12-03T16:57:26.380Z,97484.22
2023-12-03T16:59:53.708Z,97491.78
2023-12-03T17:02:20.989Z,97502.59
2023-12-03T17:04:54.075Z,97501.00
2023-12-03T17:07:26.849Z,97502.59
2023-12-03T17:09:54.391Z,97507.69
2023-12-03T17:12:21.395Z,97509.38
2023-12-03T17:14:48.950Z,97513.38
2023-12-03T17:17:17.363Z,97526.09
2023-12-03T17:19:45.211Z,97519.22
2023-12-03T17:22:12.241Z,97518.88
2023-12-03T17:24:48.280Z,97520.34
2023-12-03T17:27:15.351Z,97523.72
2023-12-03T17:29:42.190Z,97516.44
2023-12-03T17:32:09.181Z,97519.56
2023-12-03T17:34:36.260Z,97528.53
2023-12-03T17:37:03.535Z,97531.25
2023-12-03T17:39:30.523Z,97533.19
2023-12-03T17:41:57.381Z,97537.66
2023-12-03T17:44:24.347Z,97531.78
2023-12-03T17:46:52.277Z,97530.03
2023-12-03T17:49:20.059Z,97532.84
2023-12-03T17:51:47.952Z,97536.81
2023-12-03T17:54:15.504Z,97544.09
2023-12-03T17:56:42.346Z,97547.31
2023-12-03T17:59:10.497Z,97552.88
2023-12-03T18:01:38.822Z,97560.63
2023-12-03T18:04:06.167Z,97550.03
2023-12-03T18:06:39.499Z,97560.63
2023-12-03T18:09:08.430Z,97560.69
2023-12-03T18:11:36.080Z,97554.84
2023-12-03T18:14:10.546Z,97558.47
2023-12-03T18:16:37.827Z,97557.72
2023-12-03T18:19:05.016Z,97553.78
2023-12-03T18:21:32.175Z,97572.78
2023-12-03T18:24:00.096Z,97571.69
2023-12-03T18:26:26.952Z,97581.34
2023-12-03T18:28:54.054Z,97585.22
2023-12-03T18:31:21.222Z,97577.84
2023-12-03T18:33:48.493Z,97575.19
2023-12-03T18:36:20.459Z,97582.06
2023-12-03T18:38:47.972Z,97587.78
2023-12-03T18:41:16.490Z,97590.19
2023-12-03T18:43:48.556Z,97589.63
2023-12-03T18:46:16.407Z,97571.41
2023-12-03T18:48:43.632Z,97577.34
2023-12-03T18:51:11.113Z,97564.72
2023-12-03T18:53:38.454Z,97565.09
2023-12-03T18:56:10.529Z,97577.22
2023-12-03T18:58:37.323Z,97574.97
2023-12-03T19:01:07.529Z,97582.72
2023-12-03T19:03:34.788Z,97587.59
2023-12-03T19:06:03.122Z,97596.00
2023-12-03T19:08:33.408Z,97591.91
2023-12-03T19:11:03.611Z,97593.78
2023-12-03T19:13:31.029Z,97585.22
2023-12-03T19:15:59.755Z,97579.28
2023-12-03T19:18:27.689Z,97586.91
2023-12-03T19:20:56.126Z,97580.31
2023-12-03T19:23:26.445Z,97569.81
2023-12-03T19:25:54.078Z,97575.47
2023-12-03T19:28:24.958Z,97583.25
2023-12-03T19:30:54.114Z,97587.84
2023-12-03T19:33:21.562Z,97596.44
2023-12-03T19:35:48.674Z,97606.84
2023-12-03T19:38:16.346Z,97606.47
2023-12-03T19:40:43.340Z,97603.31
2023-12-03T19:43:10.963Z,97608.25
2023-12-03T19:45:37.860Z,97610.00
2023-12-03T19:48:05.237Z,97603.41
2023-12-03T19:50:32.274Z,97614.69
2023-12-03T19:53:01.910Z,97607.63
2023-12-03T19:55:28.859Z,97618.22
2023-12-03T19:57:55.809Z,97626.63
2023-12-03T20:00:25.973Z,97622.91
2023-12-03T20:02:52.887Z,97629.41
2023-12-03T20:05:21.626Z,97626.41
2023-12-03T20:07:48.586Z,97626.19
2023-12-03T20:10:15.827Z,97624.31
2023-12-03T20:12:42.709Z,97626.19
2023-12-03T20:15:21.666Z,97633.25
2023-12-03T20:18:03.136Z,97646.25
2023-12-03T20:20:33.252Z,97646.59
2023-12-03T20:23:03.527Z,97647.53
2023-12-03T20:25:30.974Z,97664.50
2023-12-03T20:27:58.411Z,97661.06
2023-12-03T20:30:25.720Z,97675.59
2023-12-03T20:32:53.793Z,97683.00
2023-12-03T20:35:22.997Z,97685.19
2023-12-03T20:37:49.954Z,97695.09
2023-12-03T20:40:26.192Z,97695.63
2023-12-03T20:42:53.540Z,97699.28
2023-12-03T20:45:20.830Z,97686.53
2023-12-03T20:47:47.781Z,97697.22
2023-12-03T20:50:14.815Z,97701.06
2023-12-03T20:52:41.739Z,97697.06
2023-12-03T20:55:11.821Z,97696.69
2023-12-03T20:57:39.073Z,97706.94
2023-12-03T21:00:07.451Z,97699.88
2023-12-03T21:02:34.785Z,97699.03
2023-12-03T21:05:01.775Z,97695.44
2023-12-03T21:07:28.901Z,97703.09
2023-12-03T21:09:58.939Z,97690.25
2023-12-03T21:12:28.383Z,97704.75
2023-12-03T21:14:55.291Z,97709.03
2023-12-03T21:17:23.579Z,97713.00
2023-12-03T21:19:59.390Z,97711.16
2023-12-03T21:22:26.544Z,97712.00
2023-12-03T21:24:54.171Z,97715.53
2023-12-03T21:27:21.396Z,97721.88
2023-12-03T21:29:48.455Z,97731.97
2023-12-03T21:32:15.344Z,97740.69
2023-12-03T21:34:42.430Z,97739.84
2023-12-03T21:37:10.172Z,97744.69
2023-12-03T21:39:37.289Z,97736.66
2023-12-03T21:42:04.832Z,97750.00
2023-12-03T21:44:32.070Z,97758.19
2023-12-03T21:46:59.650Z,97752.59
2023-12-03T21:49:26.819Z,97756.78
2023-12-03T21:51:55.631Z,97749.22
2023-12-03T21:54:23.082Z,97751.66
2023-12-03T21:56:50.137Z,97750.44
2023-12-03T21:59:17.497Z,97741.66
2023-12-03T22:01:44.896Z,97748.53
2023-12-03T22:04:12.774Z,97744.19
2023-12-03T22:06:40.166Z,97742.59
2023-12-03T22:09:10.144Z,97743.56
2023-12-03T22:11:37.265Z,97741.50
2023-12-03T22:14:04.828Z,97736.47
2023-12-03T22:16:32.226Z,97739.84
2023-12-03T22:18:59.845Z,97726.91
2023-12-03T22:21:29.204Z,97738.91
2023-12-03T22:23:57.363Z,97741.38
2023-12-03T22:26:24.501Z,97740.72
2023-12-03T22:28:51.645Z,97733.94
2023-12-03T22:31:19.897Z,97735.53
2023-12-03T22:33:47.828Z,97732.47
2023-12-03T22:36:14.635Z,97736.75
2023-12-03T22:38:41.740Z,97738.75
2023-12-03T22:41:12.101Z,97735.38
2023-12-03T22:43:39.196Z,97738.44
2023-12-03T22:46:06.557Z,97734.00
2023-12-03T22:48:34.824Z,97729.13
2023-12-03T22:51:02.196Z,97723.31
2023-12-03T22:53:30.235Z,97719.50
2023-12-03T22:56:08.691Z,97722.84
2023-12-03T22:58:36.127Z,97727.59
2023-12-03T23:01:03.674Z,97734.00
2023-12-03T23:03:30.701Z,97738.28
2023-12-03T23:06:02.173Z,97746.72
2023-12-03T23:08:34.590Z,97752.75
2023-12-03T23:11:01.869Z,97745.19
2023-12-03T23:13:28.818Z,97750.28
2023-12-03T23:15:55.699Z,97749.16
2023-12-03T23:18:22.640Z,97751.75
2023-12-03T23:20:52.556Z,97759.75
2023-12-03T23:23:25.552Z,97775.31
2023-12-03T23:25:52.374Z,97771.69
2023-12-03T23:28:19.279Z,97767.56
2023-12-03T23:30:46.500Z,97760.75
2023-12-03T23:33:13.539Z,97768.38
2023-12-03T23:35:40.879Z,97769.63
2023-12-03T23:38:07.950Z,97768.88
2023-12-03T23:40:35.072Z,97781.00
2023-12-03T23:43:02.134Z,97786.69
2023-12-03T23:45:29.234Z,97809.97
2023-12-03T23:47:58.173Z,97805.56
2023-12-03T23:50:25.346Z,97806.78
2023-12-03T23:52:52.313Z,97808.75
2023-12-03T23:55:19.338Z,97810.44
2023-12-03T23:57:46.562Z,97811.28
